GE-0014 weather

Mestia Airport
Mestia, Samegrelo-Zemo Svaneti, Georgia

Public forecast

Using degrees Celsius for public forecast. Weather courtesy of forecast.io.

Closest aviation weather report (METAR) to Mestia Airport

Report is more than 6 hours old.

Closest report is Mestia Queen Tamar Airport, 0.9 nm (1.7 km) SSW. Retrieved 2020/05/11 02:00 UTC (2 months ago):

UGMS 110200Z AUTO 18002KT //// ////// 02/01 Q1021 R02/492030

Closest aviation forecast (TAF) to Mestia Airport

Forecast is more than 12 hours old.

Closest forecast is Mestia Queen Tamar Airport, 0.9 nm (1.7 km) SSW. Retrieved 2017/05/11 08:00 UTC (3 years ago):

TAF UGMS 110700Z 1108/1114 VRB02KT 3000 RA BR OVC020